• Join FlightAware (Why Join?)
  • Login
  • US Flag 
06:55AM EDT


 

Airport Tracker/Info


-or-


 

Live Flight TrackerFlight Track Log ✈ N30VP ✈ 21-Oct-2013 ✈ KAFP - KTPA

Flight Track Log - Related Links

Times and Time Zones

All times are in EDT time to prevent confusion due to time zone crossing. See the N30VP flight status page for this flight to view local times or setup timezone preferences in your user account.

Time Position Orientation Groundspeed Altitude Reporting Facility
EDT Latitude Longitude Course Direction KTS MPH feet Rate Location/Type
04:22PM 34.9789 -80.0919 261° West 178 205 2,800  Level Atlanta Center
04:23PM 34.9672 -80.1836 261° West 247 284 7,400 3,660 Climbing Atlanta Center
04:24PM 34.9550 -80.2603 259° West 219 252 11,000 2,940 Climbing Atlanta Center
04:25PM 34.9469 -80.3392 263° West 241 277 13,700 1,020 Climbing Atlanta Center
04:28PM 34.8811 -80.5392 248° West 336 387 14,200 1,320 Climbing Washington Center
04:29PM 34.8189 -80.6289 230° Southwest 336 387 17,800 3,300 Climbing Washington Center
04:30PM 34.7442 -80.7272 227° Southwest 430 495 22,100 2,100 Climbing Jacksonville Center
04:31PM 34.6786 -80.8022 223° Southwest 363 418 23,000 420 Climbing Jacksonville Center
04:32PM 34.5728 -80.8300 192° South 357 411 23,000  Level Jacksonville Center
04:33PM 34.4689 -80.8653 196° South 373 429 23,000 1,140 Level Jacksonville Center
04:34PM 34.3672 -80.8953 194° South 379 436 25,300 1,920 Climbing Jacksonville Center
04:35PM 34.2697 -80.9250 194° South 374 430 26,900 1,800 Climbing Jacksonville Center
04:36PM 34.1742 -80.9550 195° South 374 430 29,000 1,500 Climbing Jacksonville Center
04:37PM 34.0744 -80.9872 195° South 368 423 30,000 720 Climbing Jacksonville Center
04:38PM 33.9728 -81.0169 194° South 376 433 30,500 3,000 Climbing Jacksonville Center
04:39PM 33.8583 -81.0494 193° South 381 438 36,000 1,440 Climbing Jacksonville Center
04:40PM 33.7567 -81.0789 194° South 386 444 33,400 -1,020 Descending Jacksonville Center
04:41PM 33.6653 -81.1108 196° South 381 438 34,000 780 Climbing Jacksonville Center
04:42PM 33.5633 -81.1428 195° South 381 438 35,000 960 Climbing Jacksonville Center
04:43PM 33.4636 -81.1722 194° South 375 432 36,000 480 Climbing Jacksonville Center
04:44PM 33.3619 -81.2039 195° South 375 432 36,000  Level Jacksonville Center
04:45PM 33.2600 -81.2358 195° South 375 432 36,000  Level Jacksonville Center
04:46PM 33.1581 -81.2650 193° South 375 432 36,000  Level Jacksonville Center
04:47PM 33.0542 -81.2989 195° South 375 432 36,000  Level Jacksonville Center
04:48PM 32.9522 -81.3306 195° South 375 432 36,000  Level Jacksonville Center
04:49PM 32.8483 -81.3569 192° South 375 432 36,000  Level Jacksonville Center
04:50PM 32.7442 -81.3908 195° South 375 432 36,000  Level Jacksonville Center
04:51PM 32.6339 -81.4247 195° South 368 423 36,000  Level Jacksonville Center
04:52PM 32.5322 -81.4586 196° South 375 432 36,000  Level Jacksonville Center
04:53PM 32.4383 -81.4844 193° South 380 437 36,000  Level Jacksonville Center
04:54PM 32.3219 -81.5158 193° South 388 447 36,000  Level Jacksonville Center
04:55PM 32.2158 -81.5494 195° South 393 452 36,000  Level Jacksonville Center
04:56PM 32.1097 -81.5781 193° South 393 452 36,000  Level Jacksonville Center
04:57PM 32.0033 -81.6089 194° South 392 451 36,000  Level Jacksonville Center
04:58PM 31.9097 -81.6369 194° South 392 451 36,000  Level Jacksonville Center
04:59PM 31.7953 -81.6703 194° South 392 451 36,000  Level Jacksonville Center
05:00PM 31.6892 -81.7011 194° South 392 451 36,000  Level Jacksonville Center
05:01PM 31.5911 -81.7267 193° South 398 458 36,000  Level Jacksonville Center
05:02PM 31.4747 -81.7622 195° South 393 452 36,000  Level Jacksonville Center
05:03PM 31.3789 -81.7903 194° South 393 452 36,000  Level Jacksonville Center
05:04PM 31.2725 -81.8231 195° South 393 452 36,000  Level Jacksonville Center
05:05PM 31.1664 -81.8533 194° South 393 452 36,000 -60 Level Jacksonville Center
05:06PM 31.0600 -81.8836 194° South 393 452 35,900  Descending Jacksonville Center
05:07PM 30.9517 -81.9164 195° South 393 452 36,000  Climbing Jacksonville Center
05:08PM 30.8433 -81.9464 193° South 393 452 36,000  Level Jacksonville Center
05:09PM 30.7350 -81.9789 194° South 393 452 36,000  Level Jacksonville Center
05:10PM 30.6267 -82.0089 193° South 398 458 36,000  Level Jacksonville Center
05:11PM 30.5164 -82.0342 191° South 398 458 36,000  Level Jacksonville Center
05:12PM 30.4058 -82.0639 193° South 403 464 36,000  Level Jacksonville Center
05:13PM 30.2953 -82.0986 195° South 408 470 36,000  Level Jacksonville Center
05:14PM 30.1847 -82.1236 191° South 413 475 36,000  Level Jacksonville Center
05:15PM 30.0678 -82.1078 173° South 413 475 36,000  Level Jacksonville Center
05:16PM 29.9361 -82.0847 171° South 427 491 36,000  Level Jacksonville Center
05:17PM 29.8211 -82.0619 170° South 427 491 36,000  Level Jacksonville Center
05:18PM 29.7144 -82.0364 168° South 427 491 36,000 -480 Level Jacksonville Center
05:19PM 29.5808 -82.0136 172° South 433 498 35,100 -540 Descending Jacksonville Center
05:20PM 29.4617 -81.9908 171° South 433 498 35,000 -60 Descending Jacksonville Center
05:21PM 29.3444 -81.9683 171° South 433 498 35,000  Level Jacksonville Center
05:22PM 29.2275 -81.9456 170° South 433 498 35,000 -480 Level Jacksonville Center
05:23PM 29.0506 -81.9031 168° South 432 497 33,800 -1,200 Descending Miami Center
05:24PM 28.9325 -81.8811 171° South 432 497 32,000 -1,800 Descending Miami Center
05:25PM 28.8267 -81.8622 171° South 423 487 30,300 -1,740 Descending Miami Center
05:26PM 28.7064 -81.8425 172° South 428 493 28,600 -1,680 Descending Miami Center
05:27PM 28.5906 -81.8161 169° South 428 493 27,000 -840 Descending Miami Center
05:28PM 28.4747 -81.7850 167° South 428 493 27,000  Level Miami Center
05:29PM 28.3592 -81.7539 167° South 428 493 27,000  Level Miami Center
05:30PM 28.2392 -81.7206 166° South 435 501 27,000 -600 Level Miami Center
05:31PM 28.1236 -81.6872 166° South 435 501 25,900 -1,440 Descending Miami Center
05:32PM 28.0047 -81.6822 178° South 430 495 24,200 -1,200 Descending Miami Center
05:33PM 27.8931 -81.7125 193° South 414 476 23,500 -960 Descending Miami Center
05:34PM 27.7750 -81.7475 195° South 408 470 22,300 -1,200 Descending Miami Center
05:35PM 27.6681 -81.7664 189° South 398 458 21,200 -1,200 Descending Miami Center
05:36PM 27.5678 -81.7667 180° South 393 452 20,000 -1,320 Descending Miami Center
05:37PM 27.4592 -81.7667 180° South 393 452 18,600 -1,500 Descending Miami Center
05:38PM 27.3425 -81.7664 180° South 393 452 17,100 -1,500 Descending Miami Center
05:39PM 27.2381 -81.7689 181° South 386 444 15,600 -1,500 Descending Miami Center
05:40PM 27.1336 -81.7692 180° South 386 444 14,100 -1,440 Descending Miami Center
05:41PM 27.0250 -81.7694 180° South 386 444 12,800 -1,260 Descending Miami Center
05:42PM 26.9228 -81.7719 181° South 386 444 11,600 -1,200 Descending Miami Center
05:43PM 26.8372 -81.7731 181° South 386 444 10,500 -840 Descending Miami Center
05:44PM 26.7139 -81.7725 180° South 375 432 10,000 -420 Descending Miami Center
05:45PM 26.6261 -81.7736 181° South 351 404 9,700 -1,140 Descending Miami Center
05:46PM 26.5511 -81.7728 179° South 308 354 7,800 -1,980 Descending Miami Center
05:47PM 26.4758 -81.7742 181° South 283 326 5,800 -1,980 Descending Miami Center
05:48PM 26.4050 -81.7736 180° South 263 303 3,900 -1,860 Descending Miami Center
05:49PM 26.3317 -81.7750 181° South 257 296 2,100 -1,800 Descending Miami Center
05:51PM 26.2214 -81.7699 178° South  Level FlightAware Approximate
05:58PM 26.1500 -81.7667 180° South  Level FlightAware Approximate
05:59PM 26.2470 -81.8067 180° South  Level Estimated
06:00PM 26.1500 -81.7667 180° South  Level FlightAware Approximate
06:01PM 26.2470 -81.8067 180° South  Level Estimated
06:02PM 26.1500 -81.7667 180° South  Level FlightAware Approximate
06:03PM 26.2470 -81.8067 180° South  Level Estimated
06:04PM 26.1500 -81.7667 180° South  Level FlightAware Approximate
06:05PM 26.2470 -81.8067 180° South  Level Estimated
06:06PM 26.1500 -81.7667 180° South  Level FlightAware Approximate
06:07PM 26.2470 -81.8067 180° South  Level Estimated
06:08PM 26.1500 -81.7667 180° South  Level FlightAware Approximate
06:09PM 26.2470 -81.8067 180° South  Level Estimated
06:10PM 26.1500 -81.7667 180° South  Level FlightAware Approximate